Time;durP1;ratioP1;P1;durP2;ratioP2;P2;SDS_P1;SDS_P2;PMS_P1;PMS_P2;Temp;Humidity;BMP_temperature;BMP_pressure;BME280_temperature;BME280_humidity;BME280_pressure;Samples;Min_cycle;Max_cycle;Signal;HPM_P1;HPM_P2
2022/04/02 00:00:28;;;;;;;8.90;3.28;;;2.10;99.90;;;;;;5156032;27;20038;-84
2022/04/02 00:02:57;;;;;;;7.75;3.53;;;2.10;99.90;;;;;;5104053;27;20180;-85
2022/04/02 00:05:25;;;;;;;7.18;3.50;;;1.90;99.90;;;;;;5104234;27;20043;-85
2022/04/02 00:07:50;;;;;;;11.57;3.70;;;1.90;99.90;;;;;;5156385;27;20057;-85
2022/04/02 00:10:16;;;;;;;10.38;3.58;;;1.80;99.90;;;;;;5137010;27;20424;-83
2022/04/02 00:12:42;;;;;;;7.75;3.17;;;1.80;99.90;;;;;;5103492;27;20135;-84
2022/04/02 00:15:08;;;;;;;7.90;3.50;;;1.80;99.90;;;;;;5120669;27;20070;-86
2022/04/02 00:17:33;;;;;;;9.50;3.40;;;1.80;99.90;;;;;;5137284;27;20040;-85
2022/04/02 00:19:59;;;;;;;4.03;3.00;;;1.70;99.90;;;;;;5137244;27;20045;-85
2022/04/02 00:22:25;;;;;;;6.13;3.40;;;1.60;99.90;;;;;;5102897;27;20047;-85
2022/04/02 00:24:50;;;;;;;9.60;3.42;;;1.50;99.90;;;;;;5138900;27;20500;-85
2022/04/02 00:27:16;;;;;;;5.95;3.22;;;1.60;99.90;;;;;;5139300;27;20436;-85
2022/04/02 00:29:42;;;;;;;5.32;3.05;;;1.50;99.90;;;;;;5137382;27;20042;-84
2022/04/02 00:32:08;;;;;;;4.75;3.15;;;2.20;99.90;;;;;;5133239;27;20042;-84
2022/04/02 00:34:34;;;;;;;4.57;3.22;;;1.10;99.90;;;;;;5103950;27;20122;-86
2022/04/02 00:36:59;;;;;;;5.22;3.28;;;1.30;99.90;;;;;;5121406;27;20183;-86
2022/04/02 00:39:30;;;;;;;6.60;3.03;;;1.00;99.90;;;;;;5157038;27;20042;-86
2022/04/02 00:41:56;;;;;;;4.35;3.30;;;2.20;99.90;;;;;;5138111;27;20057;-85
2022/04/02 00:44:21;;;;;;;5.95;3.30;;;1.00;99.90;;;;;;5156470;27;20043;-86
2022/04/02 00:46:47;;;;;;;5.88;3.20;;;2.00;99.90;;;;;;5121186;27;20450;-85
2022/04/02 00:49:14;;;;;;;4.55;3.03;;;1.00;99.90;;;;;;5141578;27;20068;-85
2022/04/02 00:51:43;;;;;;;4.45;3.20;;;1.90;99.90;;;;;;5126048;27;20043;-86
2022/04/02 00:54:15;;;;;;;8.80;3.70;;;1.10;99.90;;;;;;5141528;27;20035;-86
2022/04/02 00:56:42;;;;;;;4.22;2.90;;;1.20;99.90;;;;;;5155362;27;20057;-86
2022/04/02 00:59:08;;;;;;;3.88;3.45;;;1.20;99.90;;;;;;5135736;27;20054;-85
2022/04/02 01:01:35;;;;;;;5.18;3.40;;;1.70;99.90;;;;;;5116824;27;20043;-87
2022/04/02 01:04:02;;;;;;;6.40;3.53;;;0.10;99.90;;;;;;5137791;27;20047;-86
2022/04/02 01:06:29;;;;;;;5.75;3.28;;;1.10;99.90;;;;;;5128049;27;20031;-82
2022/04/02 01:08:54;;;;;;;4.65;3.40;;;1.00;99.90;;;;;;5125792;27;20047;-85
2022/04/02 01:11:20;;;;;;;5.95;3.30;;;1.10;99.90;;;;;;5149662;27;20050;-86
2022/04/02 01:13:46;;;;;;;4.90;3.35;;;1.10;99.90;;;;;;5138279;27;20057;-85
2022/04/02 01:16:12;;;;;;;5.82;2.90;;;1.30;99.90;;;;;;5119287;27;20042;-85
2022/04/02 01:18:37;;;;;;;6.00;3.40;;;0.80;99.90;;;;;;5137478;27;20062;-86
2022/04/02 01:21:03;;;;;;;6.53;3.25;;;0.80;99.90;;;;;;5138030;27;20074;-87
2022/04/02 01:23:29;;;;;;;5.40;3.60;;;1.50;99.90;;;;;;5137269;27;20038;-84
2022/04/02 01:26:04;;;;;;;6.32;3.70;;;2.00;99.90;;;;;;5120374;27;20047;-84
2022/04/02 01:28:33;;;;;;;7.18;3.60;;;2.20;99.90;;;;;;5136830;27;20466;-86
2022/04/02 01:31:06;;;;;;;6.65;3.85;;;0.70;99.90;;;;;;5104057;27;20535;-86
2022/04/02 01:33:32;;;;;;;8.45;4.03;;;0.60;99.90;;;;;;5119705;27;20431;-86
2022/04/02 01:35:59;;;;;;;3.78;3.15;;;0.70;99.90;;;;;;5120446;27;20039;-85
2022/04/02 01:38:25;;;;;;;5.43;3.28;;;0.60;99.90;;;;;;5120162;27;20039;-85
2022/04/02 01:40:50;;;;;;;6.55;3.53;;;1.30;99.90;;;;;;5120036;27;20106;-86
2022/04/02 01:43:16;;;;;;;5.28;3.38;;;2.30;99.90;;;;;;5137532;27;20039;-86
2022/04/02 01:45:42;;;;;;;4.43;3.13;;;0.70;99.90;;;;;;5120122;27;20079;-85
2022/04/02 01:48:07;;;;;;;6.40;3.25;;;1.90;99.90;;;;;;5137001;27;20094;-85
2022/04/02 01:50:33;;;;;;;6.03;3.55;;;0.80;99.90;;;;;;5136513;27;20043;-84
2022/04/02 01:52:58;;;;;;;4.40;3.45;;;0.90;99.90;;;;;;5111261;27;20034;-82
2022/04/02 01:55:24;;;;;;;4.47;3.50;;;0.90;99.90;;;;;;5138281;27;20557;-85
2022/04/02 01:57:50;;;;;;;6.47;3.50;;;1.50;99.90;;;;;;5119916;27;20054;-85
2022/04/02 02:00:16;;;;;;;4.93;3.17;;;0.80;99.90;;;;;;5139839;27;20035;-85
2022/04/02 02:02:42;;;;;;;5.55;3.63;;;0.80;99.90;;;;;;5134833;27;20043;-85
2022/04/02 02:05:08;;;;;;;5.28;3.63;;;1.20;99.90;;;;;;5117341;27;20051;-86
2022/04/02 02:07:33;;;;;;;5.65;3.55;;;0.70;99.90;;;;;;5133743;27;20051;-85
2022/04/02 02:09:59;;;;;;;6.25;3.42;;;1.90;99.90;;;;;;5133713;27;20054;-85
2022/04/02 02:12:25;;;;;;;4.72;3.45;;;1.20;99.90;;;;;;5133252;27;20039;-85
2022/04/02 02:14:51;;;;;;;7.20;3.40;;;0.70;99.90;;;;;;5115550;27;20418;-85
2022/04/02 02:17:19;;;;;;;7.22;3.53;;;1.10;99.90;;;;;;5133424;27;20035;-87
2022/04/02 02:19:44;;;;;;;5.18;3.35;;;0.50;99.90;;;;;;5115452;27;20053;-86
2022/04/02 02:22:11;;;;;;;9.20;3.90;;;0.40;99.90;;;;;;5134130;27;20042;-85
2022/04/02 02:24:37;;;;;;;4.80;3.65;;;0.40;99.90;;;;;;5115776;28;20085;-85
2022/04/02 02:27:03;;;;;;;8.38;3.47;;;1.50;99.90;;;;;;5115651;27;20043;-86
2022/04/02 02:29:28;;;;;;;7.13;3.50;;;0.30;99.90;;;;;;5132602;27;20039;-86
2022/04/02 02:31:54;;;;;;;7.22;3.08;;;0.30;99.90;;;;;;5115304;27;20051;-84
2022/04/02 02:37:04;;;;;;;7.32;3.67;;;0.50;99.90;;;;;;5134007;27;20058;-86
2022/04/02 02:39:30;;;;;;;6.95;4.00;;;0.40;99.90;;;;;;5133453;27;20122;-85
2022/04/02 02:41:55;;;;;;;7.55;4.35;;;0.90;99.90;;;;;;5132369;27;20111;-86
2022/04/02 02:44:21;;;;;;;5.50;3.58;;;0.50;99.90;;;;;;5115379;27;20099;-86
2022/04/02 02:46:47;;;;;;;8.05;3.40;;;0.60;99.90;;;;;;5131639;27;20043;-86
2022/04/02 02:49:13;;;;;;;5.45;3.33;;;0.50;99.90;;;;;;5115199;27;20035;-85
2022/04/02 02:51:39;;;;;;;5.35;3.47;;;0.50;99.90;;;;;;5115411;28;20378;-85
2022/04/02 02:54:04;;;;;;;7.15;3.83;;;1.00;99.90;;;;;;5132409;27;20062;-85
2022/04/02 02:56:30;;;;;;;5.25;3.50;;;0.20;99.90;;;;;;5132368;27;20490;-84
2022/04/02 02:58:56;;;;;;;6.68;3.83;;;0.10;99.90;;;;;;5132332;27;20455;-87
2022/04/02 03:01:21;;;;;;;6.95;3.30;;;0.10;99.90;;;;;;5132346;28;20046;-86
2022/04/02 03:03:47;;;;;;;7.30;3.35;;;0.80;99.90;;;;;;5132886;28;20054;-86
2022/04/02 03:06:13;;;;;;;6.90;4.35;;;0.00;99.90;;;;;;5132380;28;20111;-84
2022/04/02 03:08:38;;;;;;;5.85;3.80;;;0.00;99.90;;;;;;5131753;27;20031;-85
2022/04/02 03:11:04;;;;;;;4.82;2.90;;;0.90;99.90;;;;;;5133294;27;20078;-84
2022/04/02 03:13:30;;;;;;;8.70;3.65;;;0.20;99.90;;;;;;5131189;27;20047;-83
2022/04/02 03:15:56;;;;;;;6.53;3.42;;;0.20;99.90;;;;;;5114200;27;20046;-84
2022/04/02 03:18:22;;;;;;;4.50;3.25;;;0.70;99.90;;;;;;5133333;27;20035;-85
2022/04/02 03:20:47;;;;;;;6.10;3.42;;;0.20;99.90;;;;;;5114671;27;20039;-85
2022/04/02 03:23:13;;;;;;;7.38;3.50;;;1.00;99.90;;;;;;5135798;27;20035;-83
2022/04/02 03:25:39;;;;;;;7.10;3.65;;;0.00;99.90;;;;;;5155734;28;20055;-82
2022/04/02 03:28:05;;;;;;;5.70;3.30;;;0.00;99.90;;;;;;5151537;28;20068;-85
2022/04/02 03:30:30;;;;;;;6.85;3.45;;;0.00;99.90;;;;;;5138208;27;20098;-84
2022/04/02 03:32:56;;;;;;;6.03;3.60;;;-0.10;99.90;;;;;;5136870;27;20047;-85
2022/04/02 03:35:22;;;;;;;6.03;3.75;;;-0.10;99.90;;;;;;5136647;27;20039;-84
2022/04/02 03:37:48;;;;;;;8.15;3.58;;;1.00;99.90;;;;;;5136386;27;20050;-85
2022/04/02 03:40:16;;;;;;;6.55;3.58;;;-0.10;99.90;;;;;;5119067;27;20054;-85
2022/04/02 03:42:44;;;;;;;4.35;3.33;;;-0.10;99.90;;;;;;5135792;27;20039;-85
2022/04/02 03:45:10;;;;;;;7.20;3.67;;;-0.10;99.90;;;;;;5136038;27;20051;-85
2022/04/02 03:47:35;;;;;;;6.03;3.65;;;-0.10;99.90;;;;;;5119244;27;20127;-84
2022/04/02 03:50:01;;;;;;;7.70;3.90;;;-0.10;99.90;;;;;;5137111;27;20035;-85
2022/04/02 03:52:27;;;;;;;5.55;4.07;;;0.20;99.90;;;;;;5118585;27;20039;-85
2022/04/02 03:54:53;;;;;;;7.13;3.83;;;-0.20;99.90;;;;;;5117956;27;20494;-85
2022/04/02 03:57:19;;;;;;;6.95;4.10;;;-0.20;99.90;;;;;;5119405;27;20047;-86
2022/04/02 03:59:48;;;;;;;7.07;3.75;;;-0.30;99.90;;;;;;5137131;27;20382;-84
2022/04/02 04:02:13;;;;;;;6.63;3.38;;;-0.30;99.90;;;;;;5137252;27;20090;-83
2022/04/02 04:04:39;;;;;;;9.38;3.72;;;0.00;99.90;;;;;;5145280;27;20091;-85
2022/04/02 04:07:06;;;;;;;5.88;4.13;;;-0.40;99.90;;;;;;5118290;27;20043;-84
2022/04/02 04:09:31;;;;;;;8.88;4.38;;;-0.40;99.90;;;;;;5101804;27;20046;-84
2022/04/02 04:11:57;;;;;;;6.32;3.72;;;0.20;99.90;;;;;;5135033;27;20057;-84
2022/04/02 04:14:24;;;;;;;6.45;4.10;;;0.50;99.90;;;;;;5101600;27;20061;-85
2022/04/02 04:16:50;;;;;;;6.10;3.80;;;0.20;99.90;;;;;;5084906;27;20483;-85
2022/04/02 04:19:16;;;;;;;7.30;3.72;;;0.40;99.90;;;;;;5135828;27;20047;-84
2022/04/02 04:21:43;;;;;;;8.25;4.07;;;0.70;99.90;;;;;;5118597;27;20050;-84
2022/04/02 04:24:09;;;;;;;6.78;3.80;;;-0.40;99.90;;;;;;5118310;27;20050;-84
2022/04/02 04:26:34;;;;;;;7.70;4.05;;;-0.40;99.90;;;;;;5135458;27;20099;-83
2022/04/02 04:29:00;;;;;;;9.00;3.15;;;-0.40;99.90;;;;;;5117842;27;20039;-86
2022/04/02 04:31:26;;;;;;;6.03;3.47;;;-0.30;99.90;;;;;;5117244;27;20100;-86
2022/04/02 04:33:52;;;;;;;7.53;3.60;;;0.20;99.90;;;;;;5133874;27;20110;-84
2022/04/02 04:36:21;;;;;;;4.78;3.67;;;-0.10;99.90;;;;;;5134275;27;20043;-84
2022/04/02 04:38:48;;;;;;;4.82;3.38;;;0.80;99.90;;;;;;5115956;27;20554;-87
2022/04/02 04:41:13;;;;;;;7.57;3.90;;;-0.10;99.90;;;;;;5111873;27;20047;-86
2022/04/02 04:43:41;;;;;;;6.45;3.75;;;0.00;99.90;;;;;;5113226;27;20104;-86
2022/04/02 04:46:07;;;;;;;6.00;3.65;;;0.00;99.90;;;;;;5133540;27;20104;-85
2022/04/02 04:48:33;;;;;;;6.55;3.60;;;0.00;99.90;;;;;;5114053;27;20031;-85
2022/04/02 04:50:59;;;;;;;11.10;4.05;;;0.70;99.90;;;;;;5114344;27;20104;-86
2022/04/02 04:53:24;;;;;;;10.18;4.00;;;0.00;99.90;;;;;;5134656;27;20179;-83
2022/04/02 04:55:50;;;;;;;8.73;3.45;;;1.00;99.90;;;;;;5132415;27;20134;-85
2022/04/02 04:58:16;;;;;;;6.30;3.65;;;0.50;99.90;;;;;;5150873;27;20047;-82
2022/04/02 05:00:41;;;;;;;8.48;4.07;;;0.10;99.90;;;;;;5133318;28;20039;-85
2022/04/02 05:03:08;;;;;;;8.35;4.47;;;0.10;99.90;;;;;;5113837;28;20443;-85
2022/04/02 05:05:34;;;;;;;7.95;4.10;;;0.10;99.90;;;;;;5126845;28;20051;-84
2022/04/02 05:08:00;;;;;;;4.88;3.20;;;0.70;99.90;;;;;;5109323;28;20083;-85
2022/04/02 05:10:26;;;;;;;6.80;3.80;;;1.10;99.90;;;;;;5096968;28;20070;-85
2022/04/02 05:12:52;;;;;;;8.05;3.70;;;1.00;99.90;;;;;;5114919;28;20039;-85
2022/04/02 05:15:18;;;;;;;4.70;3.30;;;0.20;99.90;;;;;;5115367;28;20047;-85
2022/04/02 05:17:44;;;;;;;6.43;3.92;;;0.20;99.90;;;;;;5097975;28;20040;-86
2022/04/02 05:20:14;;;;;;;6.40;3.70;;;0.40;99.90;;;;;;5114255;28;20214;-85
2022/04/02 05:22:40;;;;;;;6.70;4.68;;;0.40;99.90;;;;;;5114117;28;20694;-85
2022/04/02 05:25:06;;;;;;;5.88;3.78;;;0.90;99.90;;;;;;5096077;28;20039;-83
2022/04/02 05:27:33;;;;;;;7.60;3.83;;;0.40;99.90;;;;;;5081028;28;20035;-85
2022/04/02 05:30:00;;;;;;;10.20;3.90;;;0.40;99.90;;;;;;5113547;28;20176;-85
2022/04/02 05:32:28;;;;;;;9.13;3.60;;;0.50;99.90;;;;;;5095760;28;20055;-84
2022/04/02 05:34:54;;;;;;;10.68;3.33;;;0.50;99.90;;;;;;5079197;28;20043;-82
2022/04/02 05:37:19;;;;;;;10.13;3.55;;;0.50;99.90;;;;;;5113284;28;20097;-84
2022/04/02 05:39:45;;;;;;;8.30;3.83;;;0.60;99.90;;;;;;5096241;28;20036;-86
2022/04/02 05:42:12;;;;;;;5.57;3.72;;;0.70;99.90;;;;;;5104145;28;20047;-85
2022/04/02 05:44:41;;;;;;;7.07;4.18;;;0.80;99.90;;;;;;5119942;28;20093;-85
2022/04/02 05:47:07;;;;;;;5.68;3.90;;;0.80;99.90;;;;;;5096084;28;20042;-86
2022/04/02 05:49:32;;;;;;;12.65;4.82;;;0.90;99.90;;;;;;5115284;28;20039;-84
2022/04/02 05:51:59;;;;;;;8.13;4.22;;;0.90;99.90;;;;;;5114105;28;20079;-85
2022/04/02 05:54:24;;;;;;;7.30;3.53;;;0.90;99.90;;;;;;5095187;27;20057;-85
2022/04/02 05:56:50;;;;;;;6.07;3.63;;;1.30;99.90;;;;;;5116839;27;20046;-87
2022/04/02 05:59:16;;;;;;;6.13;3.42;;;1.30;99.90;;;;;;5115829;27;20462;-84
2022/04/02 06:01:42;;;;;;;7.35;4.10;;;1.30;99.90;;;;;;5082440;27;20053;-86
2022/04/02 06:04:09;;;;;;;7.50;3.90;;;1.30;99.90;;;;;;5099329;27;20108;-84
2022/04/02 06:06:35;;;;;;;7.43;3.78;;;1.40;99.90;;;;;;5116178;27;20031;-85
2022/04/02 06:09:00;;;;;;;8.93;4.10;;;1.50;99.90;;;;;;5098817;27;20100;-86
2022/04/02 06:11:26;;;;;;;5.63;3.90;;;2.40;99.90;;;;;;5099078;27;20122;-85
2022/04/02 06:13:51;;;;;;;8.48;3.90;;;3.10;99.90;;;;;;5116079;27;20081;-86
2022/04/02 06:16:17;;;;;;;11.02;3.80;;;2.30;99.90;;;;;;5115654;27;20039;-86
2022/04/02 06:18:43;;;;;;;6.53;3.25;;;2.80;99.90;;;;;;5082312;27;20042;-85
2022/04/02 06:21:11;;;;;;;7.35;4.10;;;4.10;99.90;;;;;;5115575;27;20497;-86
2022/04/02 06:23:36;;;;;;;7.50;3.65;;;3.60;99.90;;;;;;5099033;27;20058;-86
2022/04/02 06:26:02;;;;;;;5.18;2.90;;;4.50;99.90;;;;;;5115985;27;20043;-86
2022/04/02 06:28:27;;;;;;;6.65;3.55;;;4.60;99.90;;;;;;5134169;27;20035;-86
2022/04/02 06:30:53;;;;;;;3.50;2.65;;;5.00;99.90;;;;;;5134251;27;20126;-86
2022/04/02 06:33:19;;;;;;;6.43;3.17;;;5.40;99.90;;;;;;5133730;27;20035;-85
2022/04/02 06:35:44;;;;;;;6.93;3.38;;;5.60;99.90;;;;;;5116029;27;20294;-85
2022/04/02 06:38:10;;;;;;;3.40;2.85;;;6.00;99.90;;;;;;5115121;27;20050;-85
2022/04/02 06:40:36;;;;;;;4.95;3.00;;;6.30;99.90;;;;;;5082515;27;20039;-86
2022/04/02 06:43:02;;;;;;;5.47;3.10;;;6.50;99.90;;;;;;5098773;27;20087;-85
2022/04/02 06:45:27;;;;;;;6.97;3.75;;;6.80;99.90;;;;;;5115744;27;20051;-85
2022/04/02 06:47:53;;;;;;;6.28;3.58;;;6.90;99.90;;;;;;5125159;27;20403;-85
2022/04/02 06:50:19;;;;;;;6.35;2.80;;;7.30;99.90;;;;;;5132659;27;20601;-84
2022/04/02 06:52:45;;;;;;;6.07;2.97;;;7.40;99.90;;;;;;5148398;27;20531;-84
2022/04/02 06:55:11;;;;;;;9.80;3.60;;;7.70;99.90;;;;;;5116793;27;20053;-84
2022/04/02 06:57:44;;;;;;;3.95;2.85;;;7.90;99.90;;;;;;5115650;27;20043;-85
2022/04/02 07:00:11;;;;;;;7.25;3.38;;;8.60;99.90;;;;;;5117357;27;20047;-83
2022/04/02 07:02:37;;;;;;;5.53;2.80;;;9.00;99.90;;;;;;5098868;27;20054;-85
2022/04/02 07:05:04;;;;;;;5.00;3.05;;;8.80;99.90;;;;;;5134650;27;20044;-84
2022/04/02 07:07:30;;;;;;;6.82;3.05;;;9.10;99.90;;;;;;5135236;27;20116;-82
2022/04/02 07:09:56;;;;;;;6.30;3.17;;;9.20;99.90;;;;;;5117931;27;20430;-84
2022/04/02 07:12:22;;;;;;;4.78;2.90;;;9.40;99.90;;;;;;5153429;27;20066;-84
2022/04/02 07:14:47;;;;;;;6.75;3.10;;;9.20;99.90;;;;;;5132841;27;20066;-84
2022/04/02 07:17:14;;;;;;;5.13;2.95;;;9.70;99.90;;;;;;5131525;27;20091;-85
2022/04/02 07:19:40;;;;;;;9.73;2.90;;;9.50;99.90;;;;;;5135271;27;20068;-85
2022/04/02 07:22:09;;;;;;;4.20;2.40;;;9.60;99.90;;;;;;5119224;27;20043;-84
2022/04/02 07:24:39;;;;;;;4.65;2.25;;;9.40;99.90;;;;;;5099284;27;20046;-84
2022/04/02 07:27:04;;;;;;;7.40;2.78;;;9.10;99.90;;;;;;5116474;27;20043;-82
2022/04/02 07:29:34;;;;;;;6.15;3.03;;;9.00;99.90;;;;;;5117457;27;20134;-82
2022/04/02 07:31:59;;;;;;;4.15;2.22;;;8.60;99.90;;;;;;5102433;27;20107;-83
2022/04/02 07:34:25;;;;;;;3.80;2.38;;;8.70;99.90;;;;;;5102396;27;20039;-85
2022/04/02 07:36:54;;;;;;;7.40;2.45;;;8.10;99.90;;;;;;5113559;27;20042;-84
2022/04/02 07:39:23;;;;;;;5.65;2.40;;;7.50;99.90;;;;;;5125602;27;20039;-85
2022/04/02 07:41:56;;;;;;;3.90;2.50;;;7.80;99.90;;;;;;5100189;27;20030;-84
2022/04/02 07:44:34;;;;;;;5.63;2.55;;;7.10;99.90;;;;;;5115588;27;20039;-85
2022/04/02 07:47:00;;;;;;;3.20;2.60;;;7.30;99.90;;;;;;5117722;27;20505;-84
2022/04/02 07:49:29;;;;;;;4.45;1.88;;;7.00;99.90;;;;;;5081947;27;20528;-84
2022/04/02 07:51:55;;;;;;;6.70;2.47;;;7.20;99.90;;;;;;5117110;27;20066;-86
2022/04/02 07:54:25;;;;;;;4.13;2.47;;;7.30;99.90;;;;;;5133892;27;20055;-84
2022/04/02 07:56:57;;;;;;;6.10;2.17;;;6.70;99.90;;;;;;5132880;27;20058;-85
2022/04/02 07:59:35;;;;;;;4.85;3.28;;;7.20;99.90;;;;;;5151276;27;20039;-84
2022/04/02 08:02:01;;;;;;;7.03;2.45;;;6.60;99.90;;;;;;5137730;27;20058;-83
2022/04/02 08:04:27;;;;;;;4.88;2.72;;;6.90;99.90;;;;;;5174907;27;20037;-84
2022/04/02 08:06:53;;;;;;;3.00;2.03;;;7.00;99.90;;;;;;5136766;27;20098;-82
2022/04/02 08:09:19;;;;;;;4.57;2.35;;;6.90;99.90;;;;;;5083799;27;20119;-83
2022/04/02 08:11:46;;;;;;;4.85;2.10;;;6.70;99.90;;;;;;5124764;27;20054;-83
2022/04/02 08:14:11;;;;;;;1.92;1.30;;;7.20;99.90;;;;;;5118670;27;20419;-84
2022/04/02 08:16:42;;;;;;;2.53;1.65;;;7.20;99.90;;;;;;5135538;27;20073;-84
2022/04/02 08:19:08;;;;;;;4.97;2.30;;;6.70;99.90;;;;;;5123149;27;20039;-85
2022/04/02 08:21:34;;;;;;;5.18;2.20;;;6.50;99.90;;;;;;5101700;27;20035;-85
2022/04/02 08:24:01;;;;;;;5.15;2.60;;;6.20;99.90;;;;;;5110342;27;20125;-82
2022/04/02 08:26:48;;;;;;;3.90;2.58;;;6.20;99.90;;;;;;5134433;27;20046;-85
2022/04/02 08:29:44;;;;;;;4.35;2.28;;;6.10;99.90;;;;;;5117590;27;20035;-85
2022/04/02 08:32:09;;;;;;;5.93;2.03;;;6.40;99.90;;;;;;5101371;27;20039;-83
2022/04/02 08:35:06;;;;;;;3.70;2.38;;;5.90;99.90;;;;;;5135472;27;20039;-83
2022/04/02 08:37:56;;;;;;;4.20;2.08;;;6.00;99.90;;;;;;5101111;27;20439;-82
2022/04/02 08:40:56;;;;;;;4.55;2.28;;;6.00;99.90;;;;;;5136463;27;20039;-82
2022/04/02 08:43:43;;;;;;;2.72;1.23;;;5.80;99.90;;;;;;5136465;27;20034;-82
2022/04/02 08:46:29;;;;;;;5.93;2.20;;;5.90;99.90;;;;;;5116903;27;20043;-82
2022/04/02 08:48:59;;;;;;;6.03;2.20;;;5.60;99.90;;;;;;5148074;27;20482;-82
2022/04/02 08:51:48;;;;;;;4.22;1.73;;;5.70;99.90;;;;;;5129709;27;20115;-82
2022/04/02 08:54:24;;;;;;;5.28;2.95;;;5.90;99.90;;;;;;5137910;27;20047;-80
2022/04/02 08:57:14;;;;;;;6.15;2.45;;;6.10;99.90;;;;;;5118539;27;20111;-83
2022/04/02 08:59:40;;;;;;;5.10;1.77;;;6.10;99.90;;;;;;5088042;27;20142;-82
2022/04/02 09:02:31;;;;;;;5.50;2.67;;;6.20;99.90;;;;;;5100507;27;20046;-83
2022/04/02 09:05:34;;;;;;;6.25;2.50;;;6.40;99.90;;;;;;5155341;27;20091;-81
2022/04/02 09:08:18;;;;;;;2.75;1.73;;;6.00;99.90;;;;;;5155472;27;20058;-82
2022/04/02 09:10:47;;;;;;;8.35;1.98;;;6.60;99.90;;;;;;5154545;27;20038;-82
2022/04/02 09:13:41;;;;;;;3.13;1.77;;;7.20;99.90;;;;;;5154778;27;20111;-84
2022/04/02 09:16:08;;;;;;;2.13;1.48;;;7.70;99.90;;;;;;5154616;27;20423;-83
2022/04/02 09:18:51;;;;;;;4.05;2.17;;;7.60;99.90;;;;;;5136231;27;20099;-83
2022/04/02 09:21:56;;;;;;;4.00;1.80;;;7.30;99.90;;;;;;5118116;27;20106;-81
2022/04/02 09:24:37;;;;;;;3.30;1.67;;;7.30;99.90;;;;;;5127640;27;20479;-82
2022/04/02 09:27:12;;;;;;;2.85;1.60;;;7.20;99.90;;;;;;5133998;27;20043;-83
2022/04/02 09:29:50;;;;;;;2.40;1.73;;;8.00;99.90;;;;;;5113670;27;20417;-83
2022/04/02 09:32:27;;;;;;;11.45;1.65;;;6.90;99.90;;;;;;5135322;27;20466;-84
2022/04/02 09:35:17;;;;;;;1.70;1.60;;;6.70;99.90;;;;;;5136421;27;20034;-84
2022/04/02 09:37:58;;;;;;;2.88;1.23;;;6.40;99.90;;;;;;5135288;27;20115;-84
2022/04/02 09:40:31;;;;;;;1.63;1.35;;;6.00;99.90;;;;;;5135226;27;20039;-83
2022/04/02 09:42:57;;;;;;;5.88;1.85;;;5.70;99.90;;;;;;5083628;27;20102;-84
2022/04/02 09:45:23;;;;;;;3.22;1.77;;;5.60;99.90;;;;;;5099612;27;20089;-83
2022/04/02 09:48:15;;;;;;;5.38;1.95;;;5.60;99.90;;;;;;5121975;27;20039;-83
2022/04/02 09:50:40;;;;;;;2.10;1.80;;;5.50;99.90;;;;;;5079807;27;20058;-83
2022/04/02 09:53:25;;;;;;;2.97;2.17;;;6.50;99.90;;;;;;5103683;27;20047;-84
2022/04/02 09:56:25;;;;;;;3.67;1.90;;;6.00;99.90;;;;;;5120381;27;20157;-84
2022/04/02 09:59:42;;;;;;;2.30;1.48;;;6.30;99.90;;;;;;5131784;27;20043;-83
2022/04/02 10:02:08;;;;;;;6.15;1.52;;;6.60;99.90;;;;;;5069302;28;20059;-84
2022/04/02 10:04:34;;;;;;;1.48;1.38;;;6.80;99.90;;;;;;5097887;27;20042;-83
2022/04/02 10:07:02;;;;;;;1.08;0.98;;;6.50;99.90;;;;;;5135651;27;20050;-85
2022/04/02 10:09:31;;;;;;;9.65;1.95;;;7.40;99.90;;;;;;5100652;27;20057;-85
2022/04/02 10:11:58;;;;;;;2.13;1.30;;;7.70;99.90;;;;;;5099258;27;20051;-83
2022/04/02 10:14:28;;;;;;;0.85;0.80;;;8.40;99.90;;;;;;5132204;27;20043;-86
2022/04/02 10:17:01;;;;;;;1.67;1.30;;;9.00;99.90;;;;;;5089717;27;20485;-85
2022/04/02 10:19:34;;;;;;;3.90;1.50;;;8.20;99.90;;;;;;5107920;27;20046;-83
2022/04/02 10:22:16;;;;;;;1.70;1.30;;;7.40;99.90;;;;;;5121639;27;20047;-87
2022/04/02 10:24:49;;;;;;;2.13;1.45;;;7.10;99.90;;;;;;5098397;27;20070;-85
2022/04/02 10:27:41;;;;;;;1.77;1.42;;;6.90;99.90;;;;;;5127948;27;20047;-84
2022/04/02 10:30:11;;;;;;;2.40;1.80;;;7.60;99.90;;;;;;5107043;27;20047;-83
2022/04/02 10:33:26;;;;;;;1.55;1.20;;;8.00;99.90;;;;;;5096530;27;20030;-83
2022/04/02 10:35:49;;;;;;;4.28;1.60;;;8.20;99.90;;;;;;5105275;27;20042;-85
2022/04/02 10:38:34;;;;;;;1.20;1.10;;;7.80;99.90;;;;;;5117895;27;20038;-86
2022/04/02 10:41:03;;;;;;;3.28;1.55;;;7.50;99.90;;;;;;5117382;27;20086;-85
2022/04/02 10:43:29;;;;;;;4.22;2.00;;;7.30;99.90;;;;;;5118053;27;20091;-84
2022/04/02 10:45:56;;;;;;;4.40;2.00;;;6.30;99.90;;;;;;5100403;27;20046;-85
2022/04/02 10:48:44;;;;;;;1.45;1.02;;;6.60;99.90;;;;;;5134066;27;20089;-86
2022/04/02 10:51:10;;;;;;;2.63;1.55;;;6.70;99.90;;;;;;5100189;27;20102;-84
2022/04/02 10:53:39;;;;;;;3.97;1.80;;;6.80;99.90;;;;;;5083244;27;20042;-86
2022/04/02 10:56:06;;;;;;;3.05;1.88;;;6.70;99.90;;;;;;5099783;27;20487;-86
2022/04/02 10:58:36;;;;;;;1.88;1.48;;;6.30;99.90;;;;;;5100188;27;20443;-87
2022/04/02 11:01:03;;;;;;;2.53;1.10;;;6.60;99.90;;;;;;5097056;28;20051;-86
2022/04/02 11:03:34;;;;;;;0.95;0.95;;;6.80;99.40;;;;;;5087188;27;20574;-83
2022/04/02 11:06:00;;;;;;;2.10;1.25;;;7.30;95.60;;;;;;5097509;28;20051;-86
2022/04/02 11:08:30;;;;;;;0.63;0.63;;;7.30;96.00;;;;;;5094190;27;20066;-84
2022/04/02 11:10:57;;;;;;;1.77;1.33;;;8.00;94.70;;;;;;5130776;27;20462;-87
2022/04/02 11:13:30;;;;;;;3.13;1.13;;;8.30;99.90;;;;;;5077789;27;20043;-86
2022/04/02 11:15:56;;;;;;;3.17;1.75;;;8.00;99.90;;;;;;5118906;27;20023;-86
2022/04/02 11:18:22;;;;;;;2.60;1.40;;;7.50;99.90;;;;;;5109857;27;20058;-88
2022/04/02 11:20:48;;;;;;;2.25;1.38;;;7.20;99.90;;;;;;5134649;27;20424;-86
2022/04/02 11:23:17;;;;;;;3.25;1.27;;;7.10;99.90;;;;;;5116595;27;20534;-87
2022/04/02 11:25:49;;;;;;;1.48;1.20;;;7.20;99.90;;;;;;5114098;27;20092;-88
2022/04/02 11:28:20;;;;;;;4.20;1.48;;;7.20;99.90;;;;;;5098534;27;20490;-88
2022/04/02 11:30:50;;;;;;;2.90;1.10;;;7.10;99.90;;;;;;5110690;28;20161;-86
2022/04/02 11:33:18;;;;;;;1.20;1.10;;;7.30;99.90;;;;;;5096410;28;20122;-85
2022/04/02 11:35:53;;;;;;;4.68;1.10;;;7.30;99.90;;;;;;5079833;28;20054;-85
2022/04/02 11:38:20;;;;;;;1.33;0.90;;;7.40;99.90;;;;;;5096536;28;20510;-85
2022/04/02 11:40:54;;;;;;;2.55;1.17;;;7.50;99.90;;;;;;5112366;28;20062;-86
2022/04/02 11:43:33;;;;;;;1.63;1.25;;;7.60;99.90;;;;;;5112981;28;20390;-85
2022/04/02 11:46:00;;;;;;;8.25;1.65;;;7.60;99.90;;;;;;5080244;28;20051;-85
2022/04/02 11:48:30;;;;;;;1.48;1.20;;;7.50;99.90;;;;;;5096512;28;20062;-86
2022/04/02 11:50:56;;;;;;;4.55;1.50;;;7.80;99.90;;;;;;5079218;27;20043;-85
2022/04/02 11:53:29;;;;;;;2.95;1.48;;;7.30;99.90;;;;;;5080773;27;20100;-86
2022/04/02 11:55:54;;;;;;;2.97;1.38;;;7.60;99.90;;;;;;5079606;28;20055;-87
2022/04/02 11:58:20;;;;;;;1.20;1.10;;;7.80;99.90;;;;;;5079469;28;20115;-85
2022/04/02 12:00:46;;;;;;;2.05;1.00;;;7.90;99.90;;;;;;5112654;28;20529;-85
2022/04/02 12:03:25;;;;;;;1.63;1.33;;;7.80;99.90;;;;;;5079098;28;20052;-87
2022/04/02 12:05:51;;;;;;;1.13;1.05;;;7.40;99.90;;;;;;5101345;27;20054;-88
2022/04/02 12:08:32;;;;;;;2.72;1.38;;;7.50;99.90;;;;;;5131639;27;20065;-87
2022/04/02 12:10:58;;;;;;;4.43;1.40;;;7.30;99.90;;;;;;5133881;27;20699;-88
2022/04/02 12:13:24;;;;;;;4.05;1.40;;;7.30;99.90;;;;;;5078469;28;20403;-87
2022/04/02 12:16:05;;;;;;;0.90;0.90;;;7.20;99.90;;;;;;5085833;27;20051;-86
2022/04/02 12:18:32;;;;;;;1.83;1.40;;;7.30;99.90;;;;;;5114571;27;20047;-85
2022/04/02 12:21:07;;;;;;;1.15;1.10;;;7.20;99.90;;;;;;5095116;28;20047;-89
2022/04/02 12:23:33;;;;;;;2.53;1.48;;;7.40;99.90;;;;;;5121889;27;20054;-87
2022/04/02 12:26:00;;;;;;;1.15;1.05;;;7.00;99.90;;;;;;5128498;27;20047;-87
2022/04/02 12:28:25;;;;;;;3.85;1.10;;;7.30;99.90;;;;;;5093191;27;20586;-86
2022/04/02 12:30:52;;;;;;;2.67;1.73;;;7.40;99.90;;;;;;5097397;27;20035;-87
2022/04/02 12:33:24;;;;;;;2.03;1.10;;;7.50;98.40;;;;;;5115261;27;20054;-84
2022/04/02 12:36:05;;;;;;;3.85;1.33;;;7.60;97.40;;;;;;5113300;27;20372;-86
2022/04/02 12:38:32;;;;;;;1.42;0.90;;;7.50;97.00;;;;;;5117021;27;20051;-84
2022/04/02 12:40:58;;;;;;;2.28;1.20;;;7.50;96.70;;;;;;5154601;27;20033;-84
2022/04/02 12:43:26;;;;;;;1.35;1.25;;;7.40;97.90;;;;;;5153579;27;20047;-86
2022/04/02 12:45:53;;;;;;;1.70;1.27;;;7.80;98.60;;;;;;5120599;27;20078;-84
2022/04/02 12:48:20;;;;;;;2.63;1.20;;;7.90;98.50;;;;;;5100358;27;20047;-85
2022/04/02 12:50:57;;;;;;;2.78;0.90;;;8.10;99.70;;;;;;5119576;27;20066;-84
2022/04/02 12:53:52;;;;;;;1.95;1.42;;;8.20;96.80;;;;;;5098410;27;21286;-85
2022/04/02 12:56:47;;;;;;;1.00;1.00;;;8.20;98.70;;;;;;5107809;27;20516;-86
2022/04/02 12:59:17;;;;;;;2.75;1.67;;;8.30;97.10;;;;;;5119225;27;20085;-84
2022/04/02 13:01:43;;;;;;;4.00;1.20;;;8.00;99.80;;;;;;5097115;27;20541;-85
2022/04/02 13:04:13;;;;;;;1.38;1.27;;;8.00;99.90;;;;;;5130639;27;20118;-85
2022/04/02 13:06:47;;;;;;;2.33;1.25;;;8.00;99.90;;;;;;5107109;27;20072;-86
2022/04/02 13:09:15;;;;;;;3.45;1.90;;;7.60;99.90;;;;;;5132127;27;20050;-85